createdAt,value
2023-01-30T00:01:05.662Z,81.45
2023-01-30T00:03:34.261Z,80.58
2023-01-30T00:06:02.169Z,79.66
2023-01-30T00:08:31.445Z,78.98
2023-01-30T00:11:05.187Z,79.12
2023-01-30T00:13:33.369Z,77.98
2023-01-30T00:16:01.598Z,80.10
2023-01-30T00:18:29.728Z,83.41
2023-01-30T00:20:58.353Z,81.46
2023-01-30T00:23:27.410Z,80.88
2023-01-30T00:25:56.717Z,80.90
2023-01-30T00:28:25.154Z,81.09
2023-01-30T00:30:54.402Z,82.72
2023-01-30T00:33:26.935Z,83.84
2023-01-30T00:35:56.986Z,83.81
2023-01-30T00:38:25.750Z,83.00
2023-01-30T00:40:53.747Z,84.14
2023-01-30T00:43:40.313Z,83.02
2023-01-30T00:46:32.574Z,85.65
2023-01-30T00:49:01.122Z,85.15
2023-01-30T00:51:28.920Z,88.09
2023-01-30T00:53:56.771Z,84.42
2023-01-30T00:56:24.509Z,87.80
2023-01-30T00:58:53.698Z,87.49
2023-01-30T01:01:21.515Z,89.91
2023-01-30T01:03:50.396Z,91.70
2023-01-30T01:06:18.375Z,93.00
2023-01-30T01:08:46.641Z,94.18
2023-01-30T01:11:24.195Z,95.64
2023-01-30T01:13:58.371Z,94.66
2023-01-30T01:16:27.159Z,90.72
2023-01-30T01:18:55.548Z,94.92
2023-01-30T01:21:24.233Z,93.11
2023-01-30T01:23:55.278Z,95.52
2023-01-30T01:26:23.234Z,95.94
2023-01-30T01:28:51.032Z,96.90
2023-01-30T01:31:20.348Z,98.40
2023-01-30T01:33:49.061Z,100.00
2023-01-30T01:36:42.331Z,100.00
2023-01-30T01:39:04.834Z,100.00
2023-01-30T01:41:31.739Z,100.00
2023-01-30T01:44:02.881Z,100.00
2023-01-30T01:46:36.229Z,100.00
2023-01-30T01:49:09.027Z,100.00
2023-01-30T01:51:41.337Z,100.00
2023-01-30T01:54:13.783Z,100.00
2023-01-30T01:56:45.007Z,100.00
2023-01-30T01:59:20.023Z,100.00
2023-01-30T02:01:50.769Z,100.00
2023-01-30T02:04:38.797Z,99.26
2023-01-30T02:07:06.976Z,96.09
2023-01-30T02:09:34.720Z,99.53
2023-01-30T02:12:05.204Z,100.00
2023-01-30T02:14:35.302Z,100.00
2023-01-30T02:17:04.491Z,100.00
2023-01-30T02:19:41.244Z,97.70
2023-01-30T02:22:44.595Z,99.35
2023-01-30T02:25:47.623Z,100.00
2023-01-30T02:28:44.329Z,100.00
2023-01-30T02:31:25.148Z,98.67
2023-01-30T02:34:05.463Z,97.04
2023-01-30T02:36:45.276Z,97.35
2023-01-30T02:39:26.743Z,100.00
2023-01-30T02:42:01.569Z,99.81
2023-01-30T02:44:37.583Z,98.28
2023-01-30T02:47:12.458Z,99.33
2023-01-30T02:49:43.358Z,97.52
2023-01-30T02:52:13.823Z,98.46
2023-01-30T02:54:41.623Z,93.94
2023-01-30T02:57:19.518Z,97.04
2023-01-30T02:59:50.429Z,98.31
2023-01-30T03:02:42.921Z,98.90
2023-01-30T03:05:44.906Z,100.00
2023-01-30T03:08:24.060Z,99.17
2023-01-30T03:10:58.143Z,99.56
2023-01-30T03:13:35.535Z,95.25
2023-01-30T03:16:08.323Z,99.40
2023-01-30T03:18:41.786Z,100.00
2023-01-30T03:21:09.588Z,100.00
2023-01-30T03:23:37.361Z,100.00
2023-01-30T03:26:07.412Z,100.00
2023-01-30T03:28:35.945Z,100.00
2023-01-30T03:31:05.612Z,100.00
2023-01-30T03:33:33.434Z,100.00
2023-01-30T03:36:02.893Z,100.00
2023-01-30T03:38:30.931Z,100.00
2023-01-30T03:40:58.817Z,100.00
2023-01-30T03:43:26.552Z,100.00
2023-01-30T03:45:54.379Z,100.00
2023-01-30T03:48:22.378Z,100.00
2023-01-30T03:50:50.422Z,100.00
2023-01-30T03:53:19.743Z,100.00
2023-01-30T03:55:47.453Z,100.00
2023-01-30T03:58:15.245Z,100.00
2023-01-30T04:00:43.400Z,100.00
2023-01-30T04:03:11.145Z,100.00
2023-01-30T04:05:39.232Z,100.00
2023-01-30T04:08:09.168Z,100.00
2023-01-30T04:10:38.443Z,100.00
2023-01-30T04:13:06.353Z,100.00
2023-01-30T04:15:34.607Z,100.00
2023-01-30T04:18:37.163Z,100.00
2023-01-30T04:21:12.726Z,100.00
2023-01-30T04:23:41.342Z,100.00
2023-01-30T04:26:11.930Z,100.00
2023-01-30T04:28:41.604Z,100.00
2023-01-30T04:31:09.488Z,100.00
2023-01-30T04:33:43.496Z,100.00
2023-01-30T04:36:13.613Z,100.00
2023-01-30T04:38:42.435Z,100.00
2023-01-30T04:41:11.528Z,100.00
2023-01-30T04:43:42.560Z,100.00
2023-01-30T04:46:28.029Z,100.00
2023-01-30T04:48:56.840Z,100.00
2023-01-30T04:51:24.574Z,100.00
2023-01-30T04:53:52.332Z,100.00
2023-01-30T04:56:21.589Z,100.00
2023-01-30T04:58:50.705Z,100.00
2023-01-30T05:01:23.867Z,100.00
2023-01-30T05:03:52.394Z,100.00
2023-01-30T05:06:20.258Z,100.00
2023-01-30T05:08:49.489Z,100.00
2023-01-30T05:11:17.339Z,100.00
2023-01-30T05:13:46.873Z,100.00
2023-01-30T05:16:15.751Z,100.00
2023-01-30T05:18:43.553Z,100.00
2023-01-30T05:21:13.030Z,100.00
2023-01-30T05:23:40.771Z,100.00
2023-01-30T05:26:08.990Z,100.00
2023-01-30T05:28:36.945Z,100.00
2023-01-30T05:31:08.007Z,100.00
2023-01-30T05:33:36.246Z,100.00
2023-01-30T05:36:04.042Z,100.00
2023-01-30T05:38:31.790Z,100.00
2023-01-30T05:41:01.043Z,100.00
2023-01-30T05:43:29.146Z,100.00
2023-01-30T05:45:58.378Z,100.00
2023-01-30T05:48:28.672Z,100.00
2023-01-30T05:50:59.055Z,100.00
2023-01-30T05:53:29.705Z,100.00
2023-01-30T05:55:57.525Z,100.00
2023-01-30T05:58:25.781Z,100.00
2023-01-30T06:00:53.780Z,100.00
2023-01-30T06:03:21.822Z,100.00
2023-01-30T06:05:51.022Z,100.00
2023-01-30T06:08:18.856Z,100.00
2023-01-30T06:10:46.618Z,100.00
2023-01-30T06:13:14.319Z,100.00
2023-01-30T06:15:42.183Z,100.00
2023-01-30T06:18:09.949Z,100.00
2023-01-30T06:20:37.687Z,100.00
2023-01-30T06:23:06.786Z,100.00
2023-01-30T06:25:34.516Z,100.00
2023-01-30T06:28:02.180Z,100.00
2023-01-30T06:30:30.021Z,100.00
2023-01-30T06:32:57.746Z,100.00
2023-01-30T06:35:25.612Z,100.00
2023-01-30T06:37:53.373Z,100.00
2023-01-30T06:40:22.658Z,100.00
2023-01-30T06:42:50.626Z,100.00
2023-01-30T06:45:20.403Z,100.00
2023-01-30T06:47:49.630Z,100.00
2023-01-30T06:50:18.923Z,100.00
2023-01-30T06:52:48.989Z,100.00
2023-01-30T06:55:19.424Z,100.00
2023-01-30T06:57:49.576Z,100.00
2023-01-30T07:00:19.849Z,100.00
2023-01-30T07:02:48.441Z,98.08
2023-01-30T07:05:16.712Z,97.72
2023-01-30T07:07:44.754Z,100.00
2023-01-30T07:10:13.071Z,100.00
2023-01-30T07:12:41.024Z,99.32
2023-01-30T07:15:10.983Z,94.42
2023-01-30T07:17:40.563Z,98.21
2023-01-30T07:20:09.543Z,99.07
2023-01-30T07:22:37.455Z,99.89
2023-01-30T07:25:06.316Z,98.17
2023-01-30T07:27:34.383Z,95.36
2023-01-30T07:30:02.213Z,92.59
2023-01-30T07:32:31.362Z,88.82
2023-01-30T07:34:59.212Z,91.39
2023-01-30T07:37:27.100Z,89.27
2023-01-30T07:39:54.851Z,88.14
2023-01-30T07:42:22.553Z,86.37
2023-01-30T07:44:50.332Z,85.56
2023-01-30T07:47:20.069Z,84.41
2023-01-30T07:49:49.329Z,84.94
2023-01-30T07:52:17.557Z,84.83
2023-01-30T07:54:45.333Z,84.05
2023-01-30T07:57:13.138Z,83.03
2023-01-30T07:59:41.220Z,81.38
2023-01-30T08:02:10.841Z,80.49
2023-01-30T08:04:39.470Z,78.17
2023-01-30T08:07:08.665Z,78.71
2023-01-30T08:09:36.441Z,79.25
2023-01-30T08:12:04.364Z,77.25
2023-01-30T08:14:32.249Z,75.66
2023-01-30T08:17:00.502Z,78.00
2023-01-30T08:19:28.306Z,76.69
2023-01-30T08:21:56.075Z,77.79
2023-01-30T08:24:25.332Z,76.82
2023-01-30T08:26:53.306Z,75.93
2023-01-30T08:29:21.349Z,76.66
2023-01-30T08:31:49.434Z,75.65
2023-01-30T08:34:17.339Z,75.60
2023-01-30T08:36:46.706Z,76.83
2023-01-30T08:39:14.949Z,72.87
2023-01-30T08:41:44.321Z,70.72
2023-01-30T08:44:12.510Z,69.77
2023-01-30T08:46:40.715Z,71.97
2023-01-30T08:49:08.663Z,73.11
2023-01-30T08:51:36.608Z,70.16
2023-01-30T08:54:04.509Z,72.00
2023-01-30T08:56:32.258Z,73.10
2023-01-30T08:59:01.635Z,71.57
2023-01-30T09:01:29.581Z,73.54
2023-01-30T09:03:58.340Z,71.49
2023-01-30T09:06:26.469Z,70.61
2023-01-30T09:08:54.354Z,68.83
2023-01-30T09:11:22.208Z,70.46
2023-01-30T09:13:50.307Z,68.29
2023-01-30T09:16:19.711Z,69.51
2023-01-30T09:18:47.581Z,67.69
2023-01-30T09:21:15.799Z,67.28
2023-01-30T09:23:43.724Z,68.72
2023-01-30T09:26:11.581Z,66.37
2023-01-30T09:28:39.450Z,68.67
2023-01-30T09:31:07.313Z,70.15
2023-01-30T09:33:36.521Z,67.81
2023-01-30T09:36:04.853Z,67.68
2023-01-30T09:38:32.584Z,68.63
2023-01-30T09:41:18.041Z,67.61
2023-01-30T09:44:00.813Z,68.98
2023-01-30T09:46:36.842Z,64.59
2023-01-30T09:49:20.918Z,65.69
2023-01-30T09:52:00.767Z,67.49
2023-01-30T09:54:31.960Z,67.50
2023-01-30T09:57:21.851Z,65.37
2023-01-30T09:59:59.744Z,65.44
2023-01-30T10:02:41.729Z,66.55
2023-01-30T10:05:11.240Z,66.00
2023-01-30T10:07:56.290Z,67.28
2023-01-30T10:10:38.501Z,65.01
2023-01-30T10:13:13.230Z,64.76
2023-01-30T10:15:51.844Z,64.91
2023-01-30T10:18:56.491Z,63.37
2023-01-30T10:21:40.020Z,65.85
2023-01-30T10:24:30.829Z,63.79
2023-01-30T10:26:59.358Z,61.50
2023-01-30T10:29:31.425Z,62.15
2023-01-30T10:32:03.646Z,62.40
2023-01-30T10:34:35.581Z,64.54
2023-01-30T10:37:09.888Z,65.21
2023-01-30T10:39:54.988Z,63.47
2023-01-30T10:42:30.458Z,62.76
2023-01-30T10:45:07.748Z,62.20
2023-01-30T10:47:57.713Z,63.15
2023-01-30T10:50:32.130Z,64.88
2023-01-30T10:53:07.986Z,62.96
2023-01-30T10:55:41.793Z,62.70
2023-01-30T10:58:18.982Z,63.37
2023-01-30T11:00:53.334Z,63.28
2023-01-30T11:03:32.239Z,60.95
2023-01-30T11:06:02.963Z,66.58
2023-01-30T11:08:34.395Z,64.51
2023-01-30T11:11:21.252Z,65.63
2023-01-30T11:13:49.177Z,64.85
2023-01-30T11:16:17.560Z,64.87
2023-01-30T11:21:43.386Z,73.38
2023-01-30T11:24:19.406Z,72.08
2023-01-30T11:26:48.844Z,78.70
2023-01-30T11:29:25.696Z,87.14
2023-01-30T11:31:54.507Z,87.73
2023-01-30T11:34:24.082Z,85.11
2023-01-30T11:36:52.606Z,82.83
2023-01-30T11:39:24.687Z,81.56
2023-01-30T11:42:04.679Z,77.39
2023-01-30T11:44:35.747Z,76.78
2023-01-30T11:47:08.474Z,79.88
2023-01-30T11:49:47.161Z,78.82
2023-01-30T11:52:25.273Z,75.59
2023-01-30T11:55:00.949Z,77.05
2023-01-30T11:57:28.891Z,75.25
2023-01-30T11:59:59.137Z,75.67
2023-01-30T12:02:30.743Z,76.29
2023-01-30T12:05:02.968Z,77.03
2023-01-30T12:07:32.756Z,83.01
2023-01-30T12:10:18.580Z,85.54
2023-01-30T12:12:52.269Z,87.66
2023-01-30T12:15:25.812Z,100.00
2023-01-30T12:18:01.258Z,100.00
2023-01-30T12:20:39.465Z,100.00
2023-01-30T12:23:14.301Z,0.00
2023-01-30T12:25:56.346Z,100.00
2023-01-30T12:28:30.784Z,100.00
2023-01-30T12:31:09.601Z,100.00
2023-01-30T12:33:37.675Z,100.00
2023-01-30T12:36:18.065Z,100.00
2023-01-30T12:39:04.752Z,100.00
2023-01-30T12:41:48.010Z,100.00
2023-01-30T12:44:29.481Z,100.00
2023-01-30T12:47:15.738Z,100.00
2023-01-30T12:50:07.525Z,100.00
2023-01-30T12:52:51.774Z,100.00
2023-01-30T12:55:34.693Z,100.00
2023-01-30T12:58:13.927Z,100.00
2023-01-30T13:00:53.538Z,100.00
2023-01-30T13:03:31.606Z,100.00
2023-01-30T13:06:11.853Z,100.00
2023-01-30T13:08:59.304Z,100.00
2023-01-30T13:11:46.332Z,100.00
2023-01-30T13:14:27.371Z,100.00
2023-01-30T13:17:07.547Z,100.00
2023-01-30T13:19:44.300Z,100.00
2023-01-30T13:22:22.838Z,100.00
2023-01-30T13:25:05.165Z,100.00
2023-01-30T13:27:37.947Z,100.00
2023-01-30T13:30:14.102Z,100.00
2023-01-30T13:32:46.904Z,100.00
2023-01-30T13:35:21.227Z,100.00
2023-01-30T13:37:52.035Z,97.68
2023-01-30T13:40:22.838Z,94.41
2023-01-30T13:42:57.699Z,91.00
2023-01-30T13:45:30.545Z,83.01
2023-01-30T13:48:12.235Z,81.09
2023-01-30T13:50:57.193Z,79.64
2023-01-30T13:53:32.372Z,76.49
2023-01-30T13:56:27.122Z,75.36
2023-01-30T13:59:03.815Z,74.04
2023-01-30T14:02:07.362Z,72.92
2023-01-30T14:04:48.472Z,70.59
2023-01-30T14:07:24.482Z,69.89
2023-01-30T14:10:06.763Z,70.50
2023-01-30T14:12:37.828Z,75.35
2023-01-30T14:15:20.053Z,75.61
2023-01-30T14:17:59.356Z,75.12
2023-01-30T14:20:30.971Z,75.10
2023-01-30T14:23:00.241Z,75.48
2023-01-30T14:25:35.673Z,75.97
2023-01-30T14:28:51.965Z,71.83
2023-01-30T14:31:53.810Z,80.38
2023-01-30T14:35:16.919Z,79.19
2023-01-30T14:37:51.653Z,75.68
2023-01-30T14:40:48.499Z,74.03
2023-01-30T14:43:37.213Z,76.16
2023-01-30T14:46:08.751Z,74.12
2023-01-30T14:48:44.504Z,75.52
2023-01-30T14:51:22.572Z,73.26
2023-01-30T14:53:57.777Z,74.17
2023-01-30T14:56:54.142Z,76.87
2023-01-30T14:59:26.355Z,75.97
2023-01-30T15:01:56.963Z,74.02
2023-01-30T15:04:27.211Z,75.59
2023-01-30T15:06:56.693Z,74.54
2023-01-30T15:09:29.072Z,74.40
2023-01-30T15:12:11.944Z,74.56
2023-01-30T15:14:49.082Z,74.69
2023-01-30T15:17:26.760Z,73.14
2023-01-30T15:20:26.120Z,70.67
2023-01-30T15:23:11.846Z,70.09
2023-01-30T15:26:04.342Z,67.82
2023-01-30T15:28:40.098Z,70.24
2023-01-30T15:31:12.124Z,67.82
2023-01-30T15:33:47.245Z,68.82
2023-01-30T15:36:25.994Z,69.83
2023-01-30T15:38:59.039Z,68.13
2023-01-30T15:41:30.231Z,69.49
2023-01-30T15:44:21.775Z,66.57
2023-01-30T15:46:56.824Z,68.03
2023-01-30T15:49:44.582Z,70.67
2023-01-30T15:52:16.114Z,71.35
2023-01-30T15:54:51.155Z,72.53
2023-01-30T15:57:24.695Z,72.33
2023-01-30T15:59:55.328Z,75.55
2023-01-30T16:02:29.981Z,74.56
2023-01-30T16:05:15.281Z,74.41
2023-01-30T16:07:43.816Z,75.38
2023-01-30T16:10:15.408Z,75.04
2023-01-30T16:12:45.097Z,73.73
2023-01-30T16:15:27.079Z,72.68
2023-01-30T16:18:04.395Z,71.48
2023-01-30T16:20:55.260Z,69.86
2023-01-30T16:23:31.526Z,70.97
2023-01-30T16:25:59.991Z,72.31
2023-01-30T16:28:31.373Z,74.75
2023-01-30T16:31:01.402Z,81.56
2023-01-30T16:33:36.007Z,80.68
2023-01-30T16:36:04.642Z,81.06
2023-01-30T16:38:38.012Z,81.14
2023-01-30T16:41:06.486Z,80.97
2023-01-30T16:43:35.567Z,86.99
2023-01-30T16:46:42.669Z,90.84
2023-01-30T16:49:18.257Z,90.73
2023-01-30T16:51:46.690Z,88.68
2023-01-30T16:54:21.841Z,87.45
2023-01-30T16:56:52.978Z,90.64
2023-01-30T16:59:32.201Z,90.91
2023-01-30T17:02:00.916Z,88.98
2023-01-30T17:04:31.016Z,87.82
2023-01-30T17:07:01.458Z,88.33
2023-01-30T17:09:42.997Z,90.74
2023-01-30T17:12:44.225Z,90.10
2023-01-30T17:15:40.483Z,85.62
2023-01-30T17:18:09.543Z,86.46
2023-01-30T17:20:47.446Z,89.72
2023-01-30T17:23:20.208Z,87.30
2023-01-30T17:25:49.795Z,83.06
2023-01-30T17:28:21.413Z,83.13
2023-01-30T17:30:51.373Z,81.23
2023-01-30T17:33:19.318Z,78.74
2023-01-30T17:35:47.314Z,77.34
2023-01-30T17:38:15.096Z,78.94
2023-01-30T17:40:43.622Z,79.38
2023-01-30T17:43:13.033Z,75.67
2023-01-30T17:45:41.222Z,75.25
2023-01-30T17:48:12.326Z,76.20
2023-01-30T17:50:40.165Z,74.72
2023-01-30T17:53:08.325Z,76.33
2023-01-30T17:55:36.825Z,74.24
2023-01-30T17:58:04.829Z,74.63
2023-01-30T18:00:32.537Z,76.79
2023-01-30T18:03:00.533Z,78.09
2023-01-30T18:05:29.729Z,74.79
2023-01-30T18:07:57.543Z,75.64
2023-01-30T18:10:25.924Z,76.06
2023-01-30T18:12:53.695Z,74.60
2023-01-30T18:15:21.595Z,74.03
2023-01-30T18:17:50.916Z,73.95
2023-01-30T18:20:20.935Z,72.82
2023-01-30T18:22:50.407Z,74.26
2023-01-30T18:25:18.821Z,72.85
2023-01-30T18:27:48.026Z,73.88
2023-01-30T18:30:18.181Z,73.52
2023-01-30T18:32:53.632Z,71.82
2023-01-30T18:35:22.494Z,74.73
2023-01-30T18:37:52.044Z,71.80
2023-01-30T18:40:20.198Z,72.11
2023-01-30T18:42:48.423Z,71.94
2023-01-30T18:45:16.169Z,70.83
2023-01-30T18:47:43.943Z,71.87
2023-01-30T18:50:12.412Z,68.98
2023-01-30T18:52:40.184Z,68.10
2023-01-30T18:55:09.886Z,68.01
2023-01-30T18:57:37.707Z,68.14
2023-01-30T19:00:06.397Z,66.42
2023-01-30T19:02:34.271Z,65.99
2023-01-30T19:05:02.062Z,68.56
2023-01-30T19:07:29.777Z,67.52
2023-01-30T19:09:57.571Z,67.64
2023-01-30T19:12:43.964Z,64.75
2023-01-30T19:15:12.034Z,64.45
2023-01-30T19:17:39.807Z,64.39
2023-01-30T19:20:11.011Z,65.77
2023-01-30T19:22:39.356Z,64.01
2023-01-30T19:25:08.334Z,65.57
2023-01-30T19:27:38.914Z,67.46
2023-01-30T19:30:08.103Z,69.50
2023-01-30T19:32:36.141Z,70.67
2023-01-30T19:35:04.289Z,74.15
2023-01-30T19:37:32.049Z,72.79
2023-01-30T19:39:59.965Z,69.97
2023-01-30T19:42:27.970Z,70.80
2023-01-30T19:44:57.222Z,71.62
2023-01-30T19:47:25.042Z,69.33
2023-01-30T19:49:53.867Z,69.75
2023-01-30T19:52:21.710Z,68.42
2023-01-30T19:54:49.498Z,67.29
2023-01-30T19:57:17.298Z,67.44
2023-01-30T19:59:45.258Z,70.86
2023-01-30T20:02:15.128Z,69.80
2023-01-30T20:04:42.878Z,69.57
2023-01-30T20:07:10.668Z,73.33
2023-01-30T20:09:38.685Z,74.02
2023-01-30T20:12:07.130Z,71.39
2023-01-30T20:14:34.980Z,74.06
2023-01-30T20:17:02.764Z,73.52
2023-01-30T20:19:31.995Z,72.50
2023-01-30T20:22:00.025Z,74.84
2023-01-30T20:24:28.010Z,74.54
2023-01-30T20:26:55.900Z,75.17
2023-01-30T20:29:23.848Z,73.76
2023-01-30T20:31:54.390Z,73.45
2023-01-30T20:34:22.580Z,72.32
2023-01-30T20:36:52.263Z,69.94
2023-01-30T20:39:20.775Z,70.34
2023-01-30T20:41:48.733Z,74.20
2023-01-30T20:44:16.402Z,72.02
2023-01-30T20:46:46.067Z,71.06
2023-01-30T20:49:15.470Z,70.24
2023-01-30T20:51:43.812Z,73.08
2023-01-30T20:54:14.759Z,70.62
2023-01-30T20:56:44.604Z,73.41
2023-01-30T20:59:14.956Z,72.78
2023-01-30T21:01:42.952Z,71.92
2023-01-30T21:04:13.708Z,74.41
2023-01-30T21:06:45.941Z,76.27
2023-01-30T21:09:17.700Z,79.44
2023-01-30T21:11:45.548Z,78.88
2023-01-30T21:14:13.972Z,77.91
2023-01-30T21:16:42.140Z,76.43
2023-01-30T21:19:13.857Z,78.33
2023-01-30T21:21:43.776Z,76.50
2023-01-30T21:24:14.453Z,75.30
2023-01-30T21:26:46.441Z,77.37
2023-01-30T21:29:15.760Z,79.20
2023-01-30T21:31:44.592Z,76.93
2023-01-30T21:34:13.536Z,77.92
2023-01-30T21:36:41.999Z,79.16
2023-01-30T21:39:31.377Z,77.04
2023-01-30T21:42:18.918Z,79.12
2023-01-30T21:44:47.734Z,76.52
2023-01-30T21:47:15.457Z,78.47
2023-01-30T21:49:45.261Z,77.40
2023-01-30T21:52:12.987Z,80.58
2023-01-30T21:54:40.739Z,76.43
2023-01-30T21:57:09.845Z,77.83
2023-01-30T21:59:37.625Z,74.78
2023-01-30T22:02:05.529Z,76.30
2023-01-30T22:04:35.516Z,75.87
2023-01-30T22:07:06.448Z,77.18
2023-01-30T22:09:34.621Z,75.39
2023-01-30T22:12:02.394Z,74.71
2023-01-30T22:14:33.205Z,75.21
2023-01-30T22:17:01.237Z,71.69
2023-01-30T22:19:35.018Z,75.00
2023-01-30T22:22:02.896Z,74.70
2023-01-30T22:24:30.737Z,78.60
2023-01-30T22:26:58.474Z,73.74
2023-01-30T22:29:26.231Z,74.62
2023-01-30T22:31:55.434Z,74.63
2023-01-30T22:34:23.272Z,73.47
2023-01-30T22:36:51.634Z,71.96
2023-01-30T22:39:19.395Z,69.23
2023-01-30T22:41:47.092Z,68.30
2023-01-30T22:44:14.876Z,72.19
2023-01-30T22:46:44.253Z,71.39
2023-01-30T22:49:13.491Z,69.59
2023-01-30T22:51:43.406Z,69.33
2023-01-30T22:54:15.503Z,69.21
2023-01-30T22:56:45.081Z,71.34
2023-01-30T22:59:13.215Z,72.63
2023-01-30T23:01:42.514Z,74.75
2023-01-30T23:04:14.114Z,69.84
2023-01-30T23:06:42.981Z,70.52
2023-01-30T23:09:14.986Z,73.99
2023-01-30T23:12:05.319Z,71.65
2023-01-30T23:14:33.087Z,71.08
2023-01-30T23:17:00.794Z,73.25
2023-01-30T23:19:29.070Z,71.49
2023-01-30T23:21:56.783Z,70.32
2023-01-30T23:24:24.454Z,73.92
2023-01-30T23:26:52.709Z,71.56
2023-01-30T23:29:21.307Z,71.45
2023-01-30T23:31:49.308Z,72.99
2023-01-30T23:34:19.111Z,72.62
2023-01-30T23:36:48.313Z,71.62
2023-01-30T23:39:16.000Z,72.61
2023-01-30T23:41:44.282Z,72.37
2023-01-30T23:44:12.031Z,74.37
2023-01-30T23:46:41.148Z,76.98
2023-01-30T23:49:10.590Z,73.06
2023-01-30T23:51:40.731Z,77.74
2023-01-30T23:54:10.506Z,79.72
2023-01-30T23:56:40.281Z,76.01
2023-01-30T23:59:08.079Z,75.81
